Darstellungsparameter: Aktuell verwendete Einstellungen:
Skalierung der Graphiken ... ?
xyx+y,   Skalierungsfaktor:      Skalierung: Modus: x, Faktor: 1
Darstellungszeitraum ... ?
Vom - - bis: - -   Zeitraum: 18.05.2019 - 18.05.2019
Min/Max/Avg-Anzeige ... ?
Zeige MMA aktuell
Zeige MMA Monat
Zeige MMA alles
Zeige --A aktuell
Zeige --A Monat
Zeige --A alles
Keine MMA-Anzeige
MMA:
Keine MMA-Graphiken
MMA-Basis: 18.05.2019 - 18.05.2019
Quicknavigation für Darstellung... ?
Tage:      1T, 2T, 3T, 5T -1T -2T -3T -5T +1T +2T +3T +5T
Wochen: 1W, 2W, 3W -1W -2W -3W +1W +2W +3W
Monate: 1M, 3M, 6M -1M -3M -6M +1M +3M +6M
Jahre:    1J, 3J, 5J, 10J -1J -3J -5J -10J +1J +3J +5J +10J
Nutze für die Darstellung ... ?
Originaldaten oder Mittelwerte auf ...
Stundenbasis Tagesbasis Wochenbasis
Monatsbasis Jahresbasis      Datenbasis: Original-Daten
Darstellen als:
Statistik (Auto) Statistik J:M      Darstellung:
Zur Graphik,    zurück zur Übersicht aller Sensoren.
 
Tabellarische Datenbersicht: ?
 
Sensor: Nr:Datum:Temp:Feuchte:Taupunkt:
Aussen-T/F 1 18-05-2019 00:00:00 11.9 C 94 % 10.97 C
2 18-05-2019 00:05:00 11.9 C 94 % 10.97 C
3 18-05-2019 00:10:00 11.8 C 94 % 10.87 C
4 18-05-2019 00:15:00 11.8 C 94 % 10.87 C
5 18-05-2019 00:20:00 11.8 C 94 % 10.87 C
6 18-05-2019 00:25:00 11.7 C 94 % 10.77 C
7 18-05-2019 00:30:00 11.7 C 94 % 10.77 C
8 18-05-2019 00:35:00 11.6 C 94 % 10.67 C
9 18-05-2019 00:40:00 11.4 C 94 % 10.47 C
10 18-05-2019 00:45:00 11.3 C 94 % 10.37 C
11 18-05-2019 00:50:00 11.2 C 94 % 10.27 C
12 18-05-2019 00:55:00 11.1 C 94 % 10.17 C
13 18-05-2019 01:00:00 10.9 C 94 % 9.97 C
14 18-05-2019 01:05:00 10.8 C 94 % 9.87 C
15 18-05-2019 01:10:00 10.7 C 94 % 9.77 C
16 18-05-2019 01:15:00 10.6 C 94 % 9.68 C
17 18-05-2019 01:20:00 10.4 C 94 % 9.48 C
18 18-05-2019 01:25:00 10.3 C 94 % 9.38 C
19 18-05-2019 01:30:00 10.3 C 94 % 9.38 C
20 18-05-2019 01:35:00 10.3 C 95 % 9.54 C
21 18-05-2019 01:40:00 10.3 C 95 % 9.54 C
22 18-05-2019 01:45:00 10.2 C 95 % 9.44 C
23 18-05-2019 01:50:00 10.2 C 95 % 9.44 C
24 18-05-2019 01:55:00 10.3 C 95 % 9.54 C
25 18-05-2019 02:00:00 10.3 C 95 % 9.54 C
Sensor: Nr:Datum:Temp:Feuchte:Taupunkt:
Aussen-T/F 26 18-05-2019 02:05:00 10.4 C 95 % 9.63 C
27 18-05-2019 02:10:00 10.4 C 96 % 9.79 C
28 18-05-2019 02:15:00 10.5 C 96 % 9.89 C
29 18-05-2019 02:20:00 10.6 C 96 % 9.99 C
30 18-05-2019 02:25:00 10.6 C 96 % 9.99 C
31 18-05-2019 02:30:00 10.7 C 96 % 10.09 C
32 18-05-2019 02:35:00 10.7 C 96 % 10.09 C
33 18-05-2019 02:40:00 10.7 C 96 % 10.09 C
34 18-05-2019 02:45:00 10.7 C 96 % 10.09 C
35 18-05-2019 02:50:00 10.7 C 96 % 10.09 C
36 18-05-2019 02:55:00 10.7 C 96 % 10.09 C
37 18-05-2019 03:00:00 10.6 C 96 % 9.99 C
38 18-05-2019 03:05:00 10.6 C 96 % 9.99 C
39 18-05-2019 03:10:00 10.6 C 96 % 9.99 C
40 18-05-2019 03:15:00 10.6 C 96 % 9.99 C
41 18-05-2019 03:20:00 10.6 C 96 % 9.99 C
42 18-05-2019 03:25:00 10.5 C 96 % 9.89 C
43 18-05-2019 03:30:00 10.4 C 96 % 9.79 C
44 18-05-2019 03:35:00 10.4 C 95 % 9.63 C
45 18-05-2019 03:40:00 10.3 C 96 % 9.69 C
46 18-05-2019 03:45:00 10.2 C 96 % 9.59 C
47 18-05-2019 03:50:00 10.2 C 96 % 9.59 C
48 18-05-2019 03:55:00 10.2 C 96 % 9.59 C
49 18-05-2019 04:00:00 10.2 C 96 % 9.59 C
50 18-05-2019 04:05:00 10.2 C 96 % 9.59 C
Sensor: Nr:Datum:Temp:Feuchte:Taupunkt:
Aussen-T/F 51 18-05-2019 04:10:00 10.1 C 96 % 9.49 C
52 18-05-2019 04:15:00 10.1 C 96 % 9.49 C
53 18-05-2019 04:20:00 10 C 96 % 9.39 C
54 18-05-2019 04:25:00 9.9 C 96 % 9.29 C
55 18-05-2019 04:30:00 9.9 C 96 % 9.29 C
56 18-05-2019 04:35:00 9.8 C 96 % 9.19 C
57 18-05-2019 04:40:00 9.8 C 96 % 9.19 C
58 18-05-2019 04:45:00 9.8 C 96 % 9.19 C
59 18-05-2019 04:50:00 9.7 C 96 % 9.09 C
60 18-05-2019 04:55:00 9.6 C 96 % 8.99 C
61 18-05-2019 05:00:00 9.6 C 96 % 8.99 C
62 18-05-2019 05:05:00 9.5 C 96 % 8.89 C
63 18-05-2019 05:10:00 9.5 C 96 % 8.89 C
64 18-05-2019 05:15:00 9.5 C 96 % 8.89 C
65 18-05-2019 05:20:00 9.4 C 96 % 8.8 C
66 18-05-2019 05:25:00 9.4 C 96 % 8.8 C
67 18-05-2019 05:30:00 9.3 C 96 % 8.7 C
68 18-05-2019 05:35:00 9.2 C 96 % 8.6 C
69 18-05-2019 05:40:00 9.1 C 96 % 8.5 C
70 18-05-2019 05:45:00 9.1 C 96 % 8.5 C
71 18-05-2019 05:50:00 9.1 C 96 % 8.5 C
72 18-05-2019 05:55:00 9.1 C 96 % 8.5 C
73 18-05-2019 06:00:00 9.1 C 96 % 8.5 C
74 18-05-2019 06:05:00 9.1 C 96 % 8.5 C
75 18-05-2019 06:10:00 9.1 C 96 % 8.5 C
Sensor: Nr:Datum:Temp:Feuchte:Taupunkt:
Aussen-T/F 76 18-05-2019 06:15:00 9.1 C 96 % 8.5 C
77 18-05-2019 06:20:00 9.2 C 96 % 8.6 C
78 18-05-2019 06:25:00 9.2 C 96 % 8.6 C
79 18-05-2019 06:30:00 9.3 C 97 % 8.85 C
80 18-05-2019 06:35:00 9.4 C 97 % 8.95 C
81 18-05-2019 06:40:00 9.6 C 97 % 9.15 C
82 18-05-2019 06:45:00 9.7 C 97 % 9.25 C
83 18-05-2019 06:50:00 9.7 C 97 % 9.25 C
84 18-05-2019 06:55:00 9.8 C 97 % 9.35 C
85 18-05-2019 07:00:00 9.8 C 97 % 9.35 C
86 18-05-2019 07:05:00 9.9 C 97 % 9.45 C
87 18-05-2019 07:10:00 10 C 97 % 9.55 C
88 18-05-2019 07:15:00 10.1 C 97 % 9.65 C
89 18-05-2019 07:20:00 10.1 C 97 % 9.65 C
90 18-05-2019 07:25:00 10.2 C 97 % 9.75 C
91 18-05-2019 07:30:00 10.2 C 97 % 9.75 C
92 18-05-2019 07:35:00 10.3 C 97 % 9.85 C
93 18-05-2019 07:40:00 10.4 C 97 % 9.94 C
94 18-05-2019 07:45:00 10.5 C 97 % 10.04 C
95 18-05-2019 07:50:00 10.6 C 97 % 10.14 C
96 18-05-2019 07:55:00 10.7 C 97 % 10.24 C
97 18-05-2019 08:00:00 10.7 C 97 % 10.24 C
98 18-05-2019 08:05:00 10.8 C 97 % 10.34 C
99 18-05-2019 08:10:00 10.9 C 97 % 10.44 C
100 18-05-2019 08:15:00 11 C 97 % 10.54 C
Sensor: Nr:Datum:Temp:Feuchte:Taupunkt:
Aussen-T/F 101 18-05-2019 08:20:00 11.1 C 97 % 10.64 C
102 18-05-2019 08:25:00 11.2 C 97 % 10.74 C
103 18-05-2019 08:30:00 11.2 C 97 % 10.74 C
104 18-05-2019 08:35:00 11.3 C 97 % 10.84 C
105 18-05-2019 08:40:00 11.4 C 97 % 10.94 C
106 18-05-2019 08:45:00 11.6 C 97 % 11.14 C
107 18-05-2019 08:50:00 11.6 C 96 % 10.98 C
108 18-05-2019 08:55:00 11.6 C 96 % 10.98 C
109 18-05-2019 09:00:00 11.7 C 96 % 11.08 C
110 18-05-2019 09:05:00 11.7 C 96 % 11.08 C
111 18-05-2019 09:10:00 11.9 C 96 % 11.28 C
112 18-05-2019 09:15:00 11.9 C 95 % 11.13 C
113 18-05-2019 09:20:00 12.1 C 95 % 11.32 C
114 18-05-2019 09:25:00 12.2 C 95 % 11.42 C
115 18-05-2019 09:30:00 12.3 C 94 % 11.36 C
116 18-05-2019 09:35:00 12.4 C 94 % 11.46 C
117 18-05-2019 09:40:00 12.6 C 94 % 11.66 C
118 18-05-2019 09:45:00 12.7 C 94 % 11.76 C
119 18-05-2019 09:50:00 12.8 C 93 % 11.7 C
120 18-05-2019 09:55:00 13 C 94 % 12.06 C
121 18-05-2019 10:00:00 13.2 C 94 % 12.26 C
122 18-05-2019 10:05:00 13.3 C 94 % 12.36 C
123 18-05-2019 10:10:00 13.4 C 94 % 12.45 C
124 18-05-2019 10:15:00 13.6 C 93 % 12.49 C
125 18-05-2019 10:20:00 13.9 C 93 % 12.79 C
Sensor: Nr:Datum:Temp:Feuchte:Taupunkt:
Aussen-T/F 126 18-05-2019 10:25:00 14.1 C 93 % 12.99 C
127 18-05-2019 10:30:00 14.2 C 92 % 12.92 C
128 18-05-2019 10:35:00 14.4 C 93 % 13.28 C
129 18-05-2019 10:40:00 14.6 C 90 % 12.98 C
130 18-05-2019 10:45:00 14.8 C 89 % 13.01 C
131 18-05-2019 10:50:00 15.1 C 86 % 12.78 C
132 18-05-2019 10:55:00 15.4 C 85 % 12.89 C
133 18-05-2019 11:00:00 15.8 C 83 % 12.92 C
134 18-05-2019 11:05:00 16.1 C 80 % 12.65 C
135 18-05-2019 11:10:00 16.3 C 78 % 12.46 C
136 18-05-2019 11:15:00 16.6 C 79 % 12.95 C
137 18-05-2019 11:20:00 16.9 C 78 % 13.04 C
138 18-05-2019 11:25:00 17.1 C 76 % 12.84 C
139 18-05-2019 11:30:00 17.2 C 76 % 12.94 C
140 18-05-2019 11:35:00 17.2 C 75 % 12.73 C
141 18-05-2019 11:40:00 17.3 C 76 % 13.03 C
142 18-05-2019 11:45:00 17.3 C 75 % 12.83 C
143 18-05-2019 11:50:00 17.4 C 76 % 13.13 C
144 18-05-2019 11:55:00 17.6 C 75 % 13.12 C
145 18-05-2019 12:00:00 17.7 C 75 % 13.22 C
146 18-05-2019 12:05:00 17.7 C 73 % 12.8 C
147 18-05-2019 12:10:00 17.8 C 74 % 13.11 C
148 18-05-2019 12:15:00 17.9 C 71 % 12.57 C
149 18-05-2019 12:20:00 17.9 C 73 % 12.99 C
150 18-05-2019 12:25:00 18.1 C 71 % 12.76 C
Sensor: Nr:Datum:Temp:Feuchte:Taupunkt:
Aussen-T/F 151 18-05-2019 12:30:00 18.3 C 71 % 12.95 C
152 18-05-2019 12:35:00 18.4 C 69 % 12.61 C
153 18-05-2019 12:40:00 18.4 C 70 % 12.83 C
154 18-05-2019 12:45:00 18.5 C 70 % 12.93 C
155 18-05-2019 12:50:00 18.5 C 71 % 13.15 C
156 18-05-2019 12:55:00 18.5 C 70 % 12.93 C
157 18-05-2019 13:00:00 18.6 C 71 % 13.24 C
158 18-05-2019 13:05:00 18.7 C 71 % 13.34 C
159 18-05-2019 13:10:00 18.8 C 68 % 12.77 C
160 18-05-2019 13:15:00 18.8 C 69 % 13 C
161 18-05-2019 13:20:00 18.9 C 68 % 12.87 C
162 18-05-2019 13:25:00 19.1 C 66 % 12.6 C
163 18-05-2019 13:30:00 19.2 C 67 % 12.93 C
164 18-05-2019 13:35:00 19.3 C 75 % 14.76 C
165 18-05-2019 13:40:00 19.2 C 74 % 14.46 C
166 18-05-2019 13:45:00 19.1 C 70 % 13.5 C
167 18-05-2019 13:50:00 19.2 C 66 % 12.7 C
168 18-05-2019 13:55:00 19.3 C 64 % 12.32 C
169 18-05-2019 14:00:00 19.6 C 71 % 14.2 C
170 18-05-2019 14:05:00 19.7 C 69 % 13.86 C
171 18-05-2019 14:10:00 19.8 C 66 % 13.27 C
172 18-05-2019 14:15:00 20 C 63 % 12.75 C
173 18-05-2019 14:20:00 20.2 C 63 % 12.94 C
174 18-05-2019 14:25:00 20.4 C 62 % 12.88 C
175 18-05-2019 14:30:00 20.6 C 59 % 12.31 C
Sensor: Nr:Datum:Temp:Feuchte:Taupunkt:
Aussen-T/F 176 18-05-2019 14:35:00 20.7 C 61 % 12.91 C
177 18-05-2019 14:40:00 20.8 C 61 % 13.01 C
178 18-05-2019 14:45:00 20.8 C 59 % 12.5 C
179 18-05-2019 14:50:00 20.8 C 59 % 12.5 C
180 18-05-2019 14:55:00 20.7 C 57 % 11.88 C
181 18-05-2019 15:00:00 20.7 C 57 % 11.88 C
182 18-05-2019 15:05:00 20.6 C 56 % 11.52 C
183 18-05-2019 15:10:00 20.6 C 59 % 12.31 C
184 18-05-2019 15:15:00 20.6 C 58 % 12.05 C
185 18-05-2019 15:20:00 20.5 C 58 % 11.96 C
186 18-05-2019 15:25:00 20.6 C 60 % 12.57 C
187 18-05-2019 15:30:00 20.7 C 59 % 12.41 C
188 18-05-2019 15:35:00 21 C 59 % 12.69 C
189 18-05-2019 15:40:00 21.4 C 60 % 13.32 C
190 18-05-2019 15:45:00 21.7 C 58 % 13.08 C
191 18-05-2019 15:50:00 22.1 C 58 % 13.45 C
192 18-05-2019 15:55:00 22.2 C 59 % 13.81 C
193 18-05-2019 16:00:00 22.1 C 61 % 14.23 C
194 18-05-2019 16:05:00 22.2 C 59 % 13.81 C
195 18-05-2019 16:10:00 22.2 C 60 % 14.07 C
196 18-05-2019 16:15:00 22.3 C 61 % 14.42 C
197 18-05-2019 16:20:00 22.4 C 61 % 14.51 C
198 18-05-2019 16:25:00 22.6 C 59 % 14.18 C
199 18-05-2019 16:30:00 22.6 C 58 % 13.92 C
200 18-05-2019 16:35:00 22.7 C 60 % 14.54 C
Sensor: Nr:Datum:Temp:Feuchte:Taupunkt:
Aussen-T/F 201 18-05-2019 16:40:00 22.7 C 58 % 14.01 C
202 18-05-2019 16:45:00 22.7 C 61 % 14.79 C
203 18-05-2019 16:50:00 22.3 C 60 % 14.16 C
204 18-05-2019 16:55:00 22.2 C 66 % 15.55 C
205 18-05-2019 17:00:00 22 C 66 % 15.36 C
206 18-05-2019 17:05:00 21.9 C 68 % 15.73 C
207 18-05-2019 17:10:00 21.7 C 64 % 14.6 C
208 18-05-2019 17:15:00 21.4 C 66 % 14.79 C
209 18-05-2019 17:20:00 21.3 C 72 % 16.05 C
210 18-05-2019 17:25:00 21.1 C 70 % 15.42 C
211 18-05-2019 17:30:00 20.9 C 72 % 15.66 C
212 18-05-2019 17:35:00 20.7 C 74 % 15.9 C
213 18-05-2019 17:40:00 20.5 C 74 % 15.71 C
214 18-05-2019 17:45:00 20.4 C 74 % 15.61 C
215 18-05-2019 17:50:00 20.3 C 73 % 15.3 C
216 18-05-2019 17:55:00 20.3 C 74 % 15.51 C
217 18-05-2019 18:00:00 20.1 C 73 % 15.11 C
218 18-05-2019 18:05:00 19.9 C 73 % 14.92 C
219 18-05-2019 18:10:00 19.7 C 74 % 14.94 C
220 18-05-2019 18:15:00 19.5 C 76 % 15.16 C
221 18-05-2019 18:20:00 19.3 C 77 % 15.17 C
222 18-05-2019 18:25:00 18.8 C 78 % 14.88 C
223 18-05-2019 18:30:00 18.4 C 79 % 14.69 C
224 18-05-2019 18:35:00 18 C 77 % 13.91 C
225 18-05-2019 18:40:00 17.6 C 77 % 13.52 C
Sensor: Nr:Datum:Temp:Feuchte:Taupunkt:
Aussen-T/F 226 18-05-2019 18:45:00 17.3 C 77 % 13.23 C
227 18-05-2019 18:50:00 17.1 C 78 % 13.24 C
228 18-05-2019 18:55:00 16.8 C 80 % 13.33 C
229 18-05-2019 19:00:00 16.6 C 81 % 13.33 C
230 18-05-2019 19:05:00 16.4 C 83 % 13.51 C
231 18-05-2019 19:10:00 16.3 C 84 % 13.59 C
232 18-05-2019 19:15:00 16.1 C 86 % 13.76 C
233 18-05-2019 19:20:00 15.9 C 87 % 13.74 C
234 18-05-2019 19:25:00 15.8 C 87 % 13.64 C
235 18-05-2019 19:30:00 15.7 C 88 % 13.72 C
236 18-05-2019 19:35:00 15.6 C 89 % 13.79 C
237 18-05-2019 19:40:00 15.6 C 89 % 13.79 C
238 18-05-2019 19:45:00 15.5 C 89 % 13.7 C
239 18-05-2019 19:50:00 15.4 C 90 % 13.77 C
240 18-05-2019 19:55:00 15.3 C 90 % 13.67 C
241 18-05-2019 20:00:00 15.2 C 90 % 13.57 C
242 18-05-2019 20:05:00 15.2 C 90 % 13.57 C
243 18-05-2019 20:10:00 15.1 C 90 % 13.47 C
244 18-05-2019 20:15:00 15 C 90 % 13.37 C
245 18-05-2019 20:20:00 14.9 C 90 % 13.28 C
246 18-05-2019 20:25:00 14.8 C 90 % 13.18 C
247 18-05-2019 20:30:00 14.8 C 91 % 13.35 C
248 18-05-2019 20:35:00 14.7 C 90 % 13.08 C
249 18-05-2019 20:40:00 14.6 C 91 % 13.15 C
250 18-05-2019 20:45:00 14.5 C 91 % 13.05 C
Sensor: Nr:Datum:Temp:Feuchte:Taupunkt:
Aussen-T/F 251 18-05-2019 20:50:00 14.4 C 91 % 12.95 C
252 18-05-2019 20:55:00 14.3 C 91 % 12.85 C
253 18-05-2019 21:00:00 14.2 C 91 % 12.75 C
254 18-05-2019 21:05:00 14.1 C 92 % 12.82 C
255 18-05-2019 21:10:00 14 C 92 % 12.72 C
256 18-05-2019 21:15:00 13.9 C 92 % 12.62 C
257 18-05-2019 21:20:00 13.9 C 92 % 12.62 C
258 18-05-2019 21:25:00 13.8 C 92 % 12.52 C
259 18-05-2019 21:30:00 13.7 C 92 % 12.42 C
260 18-05-2019 21:35:00 13.6 C 92 % 12.33 C
261 18-05-2019 21:40:00 13.5 C 92 % 12.23 C
262 18-05-2019 21:45:00 13.4 C 92 % 12.13 C
263 18-05-2019 21:50:00 13.3 C 92 % 12.03 C
264 18-05-2019 21:55:00 13.2 C 93 % 12.09 C
265 18-05-2019 22:00:00 13.1 C 93 % 11.99 C
266 18-05-2019 22:05:00 13 C 93 % 11.9 C
267 18-05-2019 22:10:00 12.9 C 93 % 11.8 C
268 18-05-2019 22:15:00 12.8 C 93 % 11.7 C
269 18-05-2019 22:20:00 12.8 C 93 % 11.7 C
270 18-05-2019 22:25:00 12.7 C 93 % 11.6 C
271 18-05-2019 22:30:00 12.7 C 93 % 11.6 C
272 18-05-2019 22:35:00 12.7 C 93 % 11.6 C
273 18-05-2019 22:40:00 12.6 C 94 % 11.66 C
274 18-05-2019 22:45:00 12.6 C 94 % 11.66 C
275 18-05-2019 22:50:00 12.6 C 94 % 11.66 C
Sensor: Nr:Datum:Temp:Feuchte:Taupunkt:
Aussen-T/F 276 18-05-2019 22:55:00 12.5 C 94 % 11.56 C
277 18-05-2019 23:00:00 12.5 C 94 % 11.56 C
278 18-05-2019 23:05:00 12.4 C 94 % 11.46 C
279 18-05-2019 23:10:00 12.4 C 94 % 11.46 C
280 18-05-2019 23:15:00 12.4 C 94 % 11.46 C
281 18-05-2019 23:20:00 12.4 C 95 % 11.62 C
282 18-05-2019 23:25:00 12.5 C 95 % 11.72 C
283 18-05-2019 23:30:00 12.6 C 95 % 11.82 C
284 18-05-2019 23:35:00 12.6 C 95 % 11.82 C
285 18-05-2019 23:40:00 12.6 C 95 % 11.82 C
286 18-05-2019 23:45:00 12.6 C 95 % 11.82 C
287 18-05-2019 23:50:00 12.7 C 95 % 11.92 C
288 18-05-2019 23:55:00 12.7 C 95 % 11.92 C

Legende:
   Min
   Max


Maximal/Minimal-Werte vom 18.05.2019 - 18.05.2019

Sensor Min Max Avg
Temp
(Aussen-T/F)
9.1 °C
18-05-2019  05:40:00
22.7 °C
18-05-2019  16:35:00
14.44 °C
Feuchte
(Aussen-T/F)
56 %
18-05-2019  15:05:00
97 %
18-05-2019  06:30:00
85.5 %
Taupunkt
(Aussen-T/F)
8.5 C
18-05-2019  05:40:00
16.05 C
18-05-2019  17:20:00
11.75 C

Die Daten stammen von einer Davis Vantage Pro 2 Wetter-Station und werden unter Linux mit der Software wview2wettercgi und aufbereitet. Alle Angaben erfolgen ohne Gewähr für ihre Vollständigkeit oder Richtigkeit.
Kontakt: Rainer Krienke krienke@uni-koblenz.de . Meine Webseiten an der Uni Koblenz oder privat.
Version: $Revision: 0.78 $